Time;durP1;ratioP1;P1;durP2;ratioP2;P2;SDS_P1;SDS_P2;PMS_P1;PMS_P2;Temp;Humidity;BMP_temperature;BMP_pressure;BME280_temperature;BME280_humidity;BME280_pressure;Samples;Min_cycle;Max_cycle;Signal;HPM_P1;HPM_P2
2024/04/15 00:00:20;;;;;;;4.65;2.00;;;;;;;20.35;39.29;94881.41;5435282;26;19999;-48
2024/04/15 00:02:45;;;;;;;4.93;2.00;;;;;;;20.27;39.51;94878.13;5422463;26;20010;-47
2024/04/15 00:05:10;;;;;;;4.15;2.10;;;;;;;19.97;40.32;94864.56;5446334;26;20002;-45
2024/04/15 00:07:36;;;;;;;3.05;2.00;;;;;;;20.09;39.70;94860.00;5447775;26;20075;-46
2024/04/15 00:10:03;;;;;;;4.20;2.10;;;;;;;20.00;39.70;94850.91;5448531;26;19999;-46
2024/04/15 00:12:28;;;;;;;4.95;2.22;;;;;;;20.22;39.40;94856.16;5438150;26;20012;-46
2024/04/15 00:14:53;;;;;;;2.38;1.95;;;;;;;20.20;39.06;94847.69;5446789;26;19999;-49
2024/04/15 00:17:19;;;;;;;2.40;1.83;;;;;;;20.01;40.27;94858.56;5446612;26;20003;-46
2024/04/15 00:19:44;;;;;;;2.63;2.10;;;;;;;20.17;39.02;94851.63;5446657;26;19999;-46
2024/04/15 00:22:09;;;;;;;2.53;1.83;;;;;;;20.11;39.38;94842.84;5449452;26;20006;-50
2024/04/15 00:24:35;;;;;;;1.90;1.80;;;;;;;19.76;40.64;94843.19;5438628;26;20011;-48
2024/04/15 00:27:00;;;;;;;2.88;1.90;;;;;;;19.72;41.12;94836.81;5450051;26;20003;-49
2024/04/15 00:29:25;;;;;;;2.50;2.10;;;;;;;19.76;40.62;94829.22;5451746;26;20075;-48
2024/04/15 00:31:51;;;;;;;2.72;1.83;;;;;;;19.75;40.36;94817.88;5456988;26;20007;-47
2024/04/15 00:34:16;;;;;;;3.33;1.90;;;;;;;20.09;39.27;94813.25;5448511;26;20010;-47
2024/04/15 00:36:44;;;;;;;3.95;2.15;;;;;;;19.95;39.64;94812.03;5449343;26;19995;-48
2024/04/15 00:39:09;;;;;;;5.28;2.53;;;;;;;20.03;39.92;94808.16;5440878;26;20009;-46
2024/04/15 00:41:35;;;;;;;1.90;1.70;;;;;;;20.02;39.77;94798.66;5448663;26;19995;-49
2024/04/15 00:44:00;;;;;;;4.97;1.98;;;;;;;19.68;40.87;94791.63;5436249;26;20068;-51
2024/04/15 00:46:26;;;;;;;3.28;1.92;;;;;;;19.96;39.65;94791.72;5451461;26;20014;-48
2024/04/15 00:48:53;;;;;;;3.58;2.05;;;;;;;19.78;40.43;94784.91;5419939;26;20008;-49
2024/04/15 00:51:21;;;;;;;2.97;1.88;;;;;;;19.85;39.66;94785.53;5442469;26;20014;-46
2024/04/15 00:53:48;;;;;;;5.72;2.00;;;;;;;20.09;39.72;94780.78;5463180;26;20009;-48
2024/04/15 00:56:14;;;;;;;2.83;1.90;;;;;;;20.08;39.87;94779.19;5449797;26;20007;-48
2024/04/15 00:58:39;;;;;;;2.58;1.90;;;;;;;20.00;39.93;94790.19;5445695;26;20082;-46
2024/04/15 01:01:05;;;;;;;3.42;1.95;;;;;;;20.15;39.56;94779.78;5441310;26;20010;-48
2024/04/15 01:03:30;;;;;;;3.95;1.77;;;;;;;19.73;40.50;94778.53;5442234;26;20516;-49
2024/04/15 01:05:56;;;;;;;2.75;1.90;;;;;;;20.06;40.25;94765.44;5441923;26;20014;-47
2024/04/15 01:08:22;;;;;;;4.30;1.83;;;;;;;19.84;40.13;94741.72;5445090;26;19999;-49
2024/04/15 01:10:48;;;;;;;3.33;2.10;;;;;;;20.11;39.72;94760.22;5419300;26;20495;-51
2024/04/15 01:13:13;;;;;;;2.85;1.92;;;;;;;20.18;39.52;94763.47;5451224;26;20030;-46
2024/04/15 01:15:39;;;;;;;2.75;2.00;;;;;;;20.16;39.95;94759.47;5446440;26;20006;-50
2024/04/15 01:18:05;;;;;;;2.45;1.77;;;;;;;20.11;40.08;94766.28;5449150;26;20007;-50
2024/04/15 01:20:30;;;;;;;2.72;1.80;;;;;;;20.01;40.88;94768.81;5446840;26;19998;-49
2024/04/15 01:23:10;;;;;;;4.75;2.00;;;;;;;19.82;41.15;94749.06;5420661;26;20010;-51
2024/04/15 01:25:35;;;;;;;2.60;2.00;;;;;;;19.75;40.56;94746.63;5450426;26;20039;-50
2024/04/15 01:28:02;;;;;;;3.30;1.73;;;;;;;19.86;40.79;94743.06;5436052;26;20000;-50
2024/04/15 01:30:28;;;;;;;3.08;1.83;;;;;;;20.05;39.81;94743.53;5449021;26;19999;-48
2024/04/15 01:32:53;;;;;;;3.15;1.80;;;;;;;20.14;39.50;94751.78;5448596;26;20043;-49
2024/04/15 01:35:19;;;;;;;3.28;1.90;;;;;;;20.21;39.64;94743.66;5450972;26;20076;-47
2024/04/15 01:37:47;;;;;;;5.97;1.83;;;;;;;20.27;39.01;94735.53;5449569;26;19995;-49
2024/04/15 01:40:12;;;;;;;3.90;1.80;;;;;;;20.25;39.22;94737.63;5449139;26;20076;-49
2024/04/15 01:42:38;;;;;;;2.90;1.70;;;;;;;20.25;39.06;94748.19;5410167;26;20011;-46
2024/04/15 01:45:03;;;;;;;3.35;1.90;;;;;;;20.28;39.31;94739.00;5448735;26;20003;-51
2024/04/15 01:47:29;;;;;;;3.67;1.92;;;;;;;20.31;39.03;94749.84;5448880;26;20300;-51
2024/04/15 01:49:54;;;;;;;4.03;2.00;;;;;;;20.16;39.56;94741.75;5447924;26;20025;-51
2024/04/15 01:52:19;;;;;;;2.85;1.90;;;;;;;20.17;39.61;94735.44;5448805;26;19999;-51
2024/04/15 01:54:45;;;;;;;2.17;1.70;;;;;;;20.37;39.01;94734.03;5450184;26;19998;-49
2024/04/15 01:57:10;;;;;;;2.00;1.80;;;;;;;20.47;40.58;94732.28;5450407;26;19999;-49
2024/04/15 01:59:35;;;;;;;2.25;1.80;;;;;;;20.33;40.93;94731.09;5450746;26;19998;-49
2024/04/15 02:02:01;;;;;;;2.25;1.67;;;;;;;20.48;40.68;94718.03;5446703;26;20009;-49
2024/04/15 02:04:26;;;;;;;4.07;1.80;;;;;;;20.45;39.76;94718.53;5448769;26;20002;-48
2024/04/15 02:06:51;;;;;;;3.95;1.80;;;;;;;20.46;38.76;94716.69;5444113;26;20007;-49
2024/04/15 02:09:18;;;;;;;2.15;1.95;;;;;;;20.61;39.05;94716.84;5448589;26;20034;-49
2024/04/15 02:11:43;;;;;;;4.53;2.00;;;;;;;20.23;38.90;94708.03;5462580;26;20006;-48
2024/04/15 02:14:08;;;;;;;1.88;1.67;;;;;;;20.49;38.96;94695.84;5448373;26;20010;-48
2024/04/15 02:16:34;;;;;;;3.63;2.08;;;;;;;20.53;38.91;94690.06;5446089;26;20011;-50
2024/04/15 02:18:59;;;;;;;2.42;1.50;;;;;;;20.47;38.45;94694.53;5417076;26;20009;-48
2024/04/15 02:21:24;;;;;;;1.83;1.63;;;;;;;20.79;37.68;94681.31;5448276;26;19999;-50
2024/04/15 02:23:50;;;;;;;2.67;1.60;;;;;;;20.78;38.26;94682.34;5418506;26;19998;-51
2024/04/15 02:26:15;;;;;;;3.90;2.05;;;;;;;20.75;37.93;94685.47;5436400;26;20002;-49
2024/04/15 02:28:40;;;;;;;3.47;1.90;;;;;;;20.79;37.82;94683.94;5428752;26;20471;-49
2024/04/15 02:31:06;;;;;;;3.78;1.90;;;;;;;20.78;38.08;94676.28;5415239;26;20003;-50
2024/04/15 02:33:31;;;;;;;2.58;1.80;;;;;;;20.73;38.19;94676.22;5444998;26;20006;-48
2024/04/15 02:35:56;;;;;;;1.85;1.75;;;;;;;20.83;37.57;94678.94;5443869;26;20003;-49
2024/04/15 02:38:22;;;;;;;2.05;1.50;;;;;;;21.10;36.37;94673.56;5447907;26;19999;-49
2024/04/15 02:40:47;;;;;;;3.55;1.90;;;;;;;20.86;39.59;94673.94;5441375;26;20000;-50
2024/04/15 02:43:12;;;;;;;2.90;1.80;;;;;;;20.98;38.62;94668.47;5448832;26;20015;-47
2024/04/15 02:45:40;;;;;;;2.80;1.63;;;;;;;21.03;38.02;94670.34;5411124;26;20000;-49
2024/04/15 02:48:06;;;;;;;2.72;1.90;;;;;;;20.72;39.72;94667.50;5446670;26;20014;-52
2024/04/15 02:50:31;;;;;;;2.28;1.60;;;;;;;20.68;39.72;94672.50;5442234;26;19999;-48
2024/04/15 02:52:56;;;;;;;2.75;1.83;;;;;;;20.82;39.44;94667.56;5439902;26;20520;-47
2024/04/15 02:55:22;;;;;;;2.85;2.10;;;;;;;20.56;40.14;94669.22;5443163;26;20403;-47
2024/04/15 02:57:47;;;;;;;5.55;2.15;;;;;;;20.42;39.81;94663.56;5446561;26;20579;-47
2024/04/15 03:00:13;;;;;;;3.75;2.03;;;;;;;20.47;39.70;94665.47;5447806;26;20332;-49
2024/04/15 03:02:38;;;;;;;3.25;2.10;;;;;;;20.63;39.63;94658.47;5416832;26;20002;-47
2024/04/15 03:05:04;;;;;;;2.95;1.70;;;;;;;20.51;40.26;94677.13;5449570;26;20010;-51
2024/04/15 03:07:29;;;;;;;3.80;1.70;;;;;;;20.62;39.88;94686.75;5447391;26;20033;-52
2024/04/15 03:09:55;;;;;;;4.60;2.00;;;;;;;20.61;40.40;94708.13;5447754;26;20343;-50
2024/04/15 03:12:20;;;;;;;3.55;1.80;;;;;;;20.58;41.13;94717.34;5447936;26;20007;-49
2024/04/15 03:14:46;;;;;;;6.10;2.10;;;;;;;20.56;41.70;94730.00;5434365;26;20036;-50
2024/04/15 03:17:11;;;;;;;4.07;2.10;;;;;;;20.47;42.51;94734.16;5447809;26;20038;-48
2024/04/15 03:19:36;;;;;;;5.50;2.30;;;;;;;20.36;43.54;94729.81;5411969;26;20000;-46
2024/04/15 03:22:02;;;;;;;3.42;2.40;;;;;;;20.25;45.13;94740.28;5447343;26;20013;-50
2024/04/15 03:24:29;;;;;;;3.70;2.30;;;;;;;19.98;45.83;94731.56;5449422;26;20010;-50
2024/04/15 03:26:55;;;;;;;4.50;2.38;;;;;;;19.80;46.69;94724.75;5431828;26;20006;-47
2024/04/15 03:29:20;;;;;;;2.45;2.20;;;;;;;19.20;48.00;94705.28;5449098;26;20052;-50
2024/04/15 03:31:46;;;;;;;4.72;2.50;;;;;;;18.88;49.13;94705.91;5447437;26;20014;-51
2024/04/15 03:34:11;;;;;;;2.50;2.30;;;;;;;18.92;49.35;94701.75;5440093;26;19998;-46
2024/04/15 03:36:37;;;;;;;3.22;2.10;;;;;;;19.01;47.90;94697.66;5446671;26;20014;-47
2024/04/15 03:39:03;;;;;;;3.25;2.38;;;;;;;19.17;47.66;94682.84;5449174;26;20002;-49
2024/04/15 03:41:28;;;;;;;3.53;2.20;;;;;;;19.23;47.57;94683.69;5449067;26;20007;-46
2024/04/15 03:43:54;;;;;;;5.53;2.10;;;;;;;19.60;45.51;94677.81;5440585;26;20029;-46
2024/04/15 03:46:19;;;;;;;4.97;2.28;;;;;;;19.66;45.24;94671.56;5438528;26;20026;-49
2024/04/15 03:48:45;;;;;;;3.05;2.28;;;;;;;19.55;47.67;94670.63;5448297;26;20010;-48
2024/04/15 03:51:10;;;;;;;4.47;2.40;;;;;;;19.21;47.17;94672.59;5411212;26;20003;-45
2024/04/15 03:53:35;;;;;;;4.57;2.83;;;;;;;19.22;47.83;94677.63;5441670;26;20033;-46
2024/04/15 03:56:01;;;;;;;3.45;2.30;;;;;;;19.51;45.25;94670.34;5440896;26;20003;-45
2024/04/15 03:58:27;;;;;;;4.03;2.40;;;;;;;19.56;46.50;94674.09;5446908;26;20003;-47
2024/04/15 04:00:59;;;;;;;3.53;2.40;;;;;;;19.49;46.18;94682.97;5444566;26;19999;-46
2024/04/15 04:03:25;;;;;;;4.28;2.40;;;;;;;19.62;47.19;94676.53;5446316;26;20005;-46
2024/04/15 04:05:54;;;;;;;5.22;2.50;;;;;;;19.67;46.58;94681.88;5416436;26;20014;-47
2024/04/15 04:08:20;;;;;;;2.60;2.40;;;;;;;19.66;47.89;94696.09;5451269;26;20002;-48
2024/04/15 04:10:46;;;;;;;3.92;2.20;;;;;;;19.65;47.62;94691.06;5439236;26;20002;-49
2024/04/15 04:13:11;;;;;;;3.58;2.55;;;;;;;19.50;50.10;94691.69;5446715;26;20007;-49
2024/04/15 04:15:37;;;;;;;6.25;2.60;;;;;;;19.14;50.90;94692.03;5445096;26;19995;-47
2024/04/15 04:18:04;;;;;;;3.63;2.70;;;;;;;19.22;51.21;94684.75;5448263;26;20044;-49
2024/04/15 04:20:31;;;;;;;4.97;2.53;;;;;;;18.97;49.92;94690.50;5439976;26;20042;-50
2024/04/15 04:22:56;;;;;;;3.45;2.72;;;;;;;19.13;51.83;94708.09;5448150;26;20003;-47
2024/04/15 04:25:23;;;;;;;3.80;2.60;;;;;;;18.95;51.19;94714.44;5446486;26;20466;-51
2024/04/15 04:27:49;;;;;;;3.55;2.95;;;;;;;18.80;51.17;94716.84;5448564;26;20361;-48
2024/04/15 04:30:14;;;;;;;2.92;2.72;;;;;;;18.66;51.24;94722.44;5435326;26;20015;-49
2024/04/15 04:32:40;;;;;;;3.38;2.70;;;;;;;18.94;50.16;94713.66;5442002;26;20033;-50
2024/04/15 04:35:06;;;;;;;3.80;2.60;;;;;;;18.79;49.89;94704.69;5432561;26;20451;-52
2024/04/15 04:37:31;;;;;;;6.30;2.55;;;;;;;18.22;50.34;94695.94;5448117;26;19995;-51
2024/04/15 04:39:57;;;;;;;3.35;2.70;;;;;;;18.18;50.95;94686.88;5446027;26;20006;-49
2024/04/15 04:42:22;;;;;;;4.18;2.80;;;;;;;18.12;51.41;94685.22;5444257;26;20071;-49
2024/04/15 04:44:56;;;;;;;2.60;2.40;;;;;;;18.14;50.89;94676.06;5437092;26;20010;-50
2024/04/15 04:47:24;;;;;;;4.88;3.10;;;;;;;18.13;52.14;94676.28;5432470;26;20014;-46
2024/04/15 04:49:52;;;;;;;5.18;3.15;;;;;;;18.04;52.70;94657.44;5446000;26;20010;-47
2024/04/15 04:52:17;;;;;;;6.65;2.92;;;;;;;18.07;53.61;94661.47;5445527;26;20011;-49
2024/04/15 04:54:44;;;;;;;5.75;3.35;;;;;;;18.07;53.26;94656.19;5447924;26;20003;-48
2024/04/15 04:57:09;;;;;;;3.38;3.00;;;;;;;18.16;51.73;94652.94;5447476;26;20022;-47
2024/04/15 04:59:34;;;;;;;3.88;2.80;;;;;;;18.23;52.17;94655.41;5447825;26;20011;-49
2024/04/15 05:02:01;;;;;;;2.83;2.53;;;;;;;18.29;52.05;94662.34;5442651;26;20402;-46
2024/04/15 05:04:27;;;;;;;5.57;3.83;;;;;;;18.58;51.69;94659.59;5447948;26;20013;-48
2024/04/15 05:06:54;;;;;;;3.85;2.58;;;;;;;18.63;49.96;94659.69;5437865;26;20003;-50
2024/04/15 05:09:19;;;;;;;3.78;3.10;;;;;;;18.75;50.28;94652.50;5447688;26;20009;-48
2024/04/15 05:11:45;;;;;;;4.15;2.97;;;;;;;18.77;50.20;94654.88;5448340;26;19998;-47
2024/04/15 05:14:10;;;;;;;3.72;2.78;;;;;;;18.57;50.93;94650.13;5444182;26;20080;-49
2024/04/15 05:16:36;;;;;;;5.85;2.70;;;;;;;18.60;50.96;94654.91;5413468;26;20013;-48
2024/04/15 05:19:01;;;;;;;3.70;2.58;;;;;;;18.79;49.72;94658.09;5433595;26;20464;-47
2024/04/15 05:21:26;;;;;;;3.03;2.40;;;;;;;18.86;50.19;94655.28;5443998;26;19999;-47
2024/04/15 05:23:52;;;;;;;6.50;2.80;;;;;;;18.93;49.51;94658.56;5449163;26;20072;-48
2024/04/15 05:26:17;;;;;;;3.80;2.42;;;;;;;18.94;50.11;94647.78;5410518;26;19999;-47
2024/04/15 05:28:43;;;;;;;5.93;2.72;;;;;;;19.01;50.09;94652.88;5433795;26;20004;-50
2024/04/15 05:31:08;;;;;;;3.35;2.30;;;;;;;19.02;49.38;94643.09;5443073;26;20007;-50
2024/04/15 05:33:34;;;;;;;3.75;2.70;;;;;;;18.97;49.99;94641.22;5422634;26;19999;-48
2024/04/15 05:36:00;;;;;;;3.53;2.63;;;;;;;19.12;48.97;94637.97;5472769;26;20014;-48
2024/04/15 05:38:25;;;;;;;3.88;2.63;;;;;;;19.05;48.83;94635.50;5450822;26;20044;-47
2024/04/15 05:40:51;;;;;;;3.35;2.60;;;;;;;19.13;48.40;94636.94;5448317;26;19999;-47
2024/04/15 05:43:16;;;;;;;4.95;2.60;;;;;;;19.25;49.13;94655.28;5443832;26;20000;-47
2024/04/15 05:45:43;;;;;;;4.22;2.50;;;;;;;19.12;50.34;94662.50;5449028;26;20003;-46
2024/04/15 05:48:09;;;;;;;3.42;2.78;;;;;;;19.26;49.99;94652.38;5450575;26;20022;-46
2024/04/15 05:50:35;;;;;;;3.95;2.50;;;;;;;19.46;48.67;94651.81;5441354;26;20014;-50
2024/04/15 05:53:00;;;;;;;3.35;2.70;;;;;;;19.16;50.61;94672.56;5450712;26;20003;-45
2024/04/15 05:55:26;;;;;;;3.50;3.00;;;;;;;19.29;49.86;94654.53;5437636;26;20013;-47
2024/04/15 05:57:51;;;;;;;7.07;3.08;;;;;;;19.19;50.61;94645.69;5437466;26;20012;-46
2024/04/15 06:00:18;;;;;;;5.22;3.17;;;;;;;18.93;51.20;94648.03;5448779;26;20013;-46
2024/04/15 06:02:44;;;;;;;4.90;2.95;;;;;;;19.05;50.35;94648.69;5448520;26;20027;-46
2024/04/15 06:05:09;;;;;;;5.07;3.40;;;;;;;18.92;51.84;94649.03;5446154;26;20003;-47
2024/04/15 06:07:35;;;;;;;4.32;3.10;;;;;;;19.03;51.10;94626.28;5447786;26;20003;-46
2024/04/15 06:10:00;;;;;;;3.88;2.85;;;;;;;19.34;49.67;94628.22;5450344;26;20348;-47
2024/04/15 06:12:31;;;;;;;3.22;2.92;;;;;;;19.43;49.83;94625.16;5427184;26;20022;-46
2024/04/15 06:14:57;;;;;;;3.47;3.00;;;;;;;19.55;49.53;94617.88;5444160;26;20031;-46
2024/04/15 06:17:22;;;;;;;4.15;2.47;;;;;;;19.60;48.09;94614.50;5448593;26;20014;-47
2024/04/15 06:19:48;;;;;;;4.55;2.47;;;;;;;19.77;47.60;94609.97;5450242;26;20035;-48
2024/04/15 06:22:13;;;;;;;4.35;2.50;;;;;;;19.75;47.37;94611.25;5414172;26;20054;-47
2024/04/15 06:24:38;;;;;;;4.07;2.65;;;;;;;19.82;49.35;94612.66;5442700;26;20002;-46
2024/04/15 06:27:04;;;;;;;4.47;2.72;;;;;;;19.77;50.82;94609.16;5442712;26;20019;-47
2024/04/15 06:29:29;;;;;;;3.53;2.85;;;;;;;20.02;50.94;94608.59;5437071;26;20003;-46
2024/04/15 06:31:55;;;;;;;3.83;2.53;;;;;;;20.08;51.09;94612.84;5434504;26;20005;-47
2024/04/15 06:34:21;;;;;;;4.95;2.80;;;;;;;20.07;51.27;94620.00;5449641;26;20003;-46
2024/04/15 06:36:48;;;;;;;3.55;2.60;;;;;;;20.19;49.84;94609.25;5447418;26;19998;-46
2024/04/15 06:39:14;;;;;;;4.57;2.70;;;;;;;20.15;50.21;94610.81;5441506;26;20005;-47
2024/04/15 06:41:39;;;;;;;3.65;2.70;;;;;;;20.15;51.79;94608.16;5411004;26;19997;-46
2024/04/15 06:44:05;;;;;;;3.72;2.55;;;;;;;20.23;51.62;94607.69;5447902;26;19999;-46
2024/04/15 06:46:31;;;;;;;3.97;2.83;;;;;;;20.43;49.83;94612.34;5450311;26;19995;-48
2024/04/15 06:48:56;;;;;;;4.15;3.17;;;;;;;20.57;49.11;94604.75;5447702;26;20046;-46
2024/04/15 06:51:22;;;;;;;4.35;2.55;;;;;;;20.58;48.59;94606.38;5446734;26;19999;-48
2024/04/15 06:53:47;;;;;;;5.38;2.78;;;;;;;20.57;49.95;94607.41;5443807;26;20007;-46
2024/04/15 06:56:13;;;;;;;4.35;2.78;;;;;;;20.75;48.05;94615.97;5447814;26;20010;-46
2024/04/15 06:58:38;;;;;;;5.53;2.60;;;;;;;20.64;48.35;94607.22;5436223;26;20463;-46
2024/04/15 07:01:04;;;;;;;3.65;2.42;;;;;;;20.59;46.62;94610.59;5439075;26;20035;-48
2024/04/15 07:03:29;;;;;;;5.10;2.60;;;;;;;20.81;48.25;94613.13;5416369;26;20006;-49
2024/04/15 07:05:54;;;;;;;4.40;2.47;;;;;;;20.61;48.68;94603.22;5441636;26;20003;-49
2024/04/15 07:08:20;;;;;;;8.23;3.20;;;;;;;20.90;47.81;94600.19;5407873;26;20012;-46
2024/04/15 07:10:45;;;;;;;3.92;2.60;;;;;;;20.60;51.22;94606.13;5444696;26;20340;-46
2024/04/15 07:13:11;;;;;;;5.15;2.90;;;;;;;20.80;49.66;94600.16;5411756;26;20014;-48
2024/04/15 07:15:37;;;;;;;7.70;2.80;;;;;;;20.84;46.92;94595.94;5441745;26;19995;-47
2024/04/15 07:18:03;;;;;;;5.60;2.60;;;;;;;21.19;44.24;94589.22;5440526;26;20018;-46
2024/04/15 07:20:29;;;;;;;6.53;2.83;;;;;;;20.88;47.54;94594.38;5448622;26;19999;-46
2024/04/15 07:22:55;;;;;;;6.82;2.67;;;;;;;20.91;48.68;94599.16;5417073;26;20011;-47
2024/04/15 07:25:20;;;;;;;4.30;2.50;;;;;;;21.03;48.09;94596.31;5445643;26;20052;-46
2024/04/15 07:27:46;;;;;;;4.85;2.47;;;;;;;21.18;46.88;94598.22;5444395;26;20002;-47
2024/04/15 07:30:11;;;;;;;7.10;3.00;;;;;;;21.19;49.92;94607.72;5446475;26;19999;-46
2024/04/15 07:32:37;;;;;;;3.35;2.70;;;;;;;21.05;50.06;94594.97;5441784;26;20010;-47
2024/04/15 07:35:04;;;;;;;6.35;3.40;;;;;;;21.17;49.13;94601.91;5447254;26;19999;-47
2024/04/15 07:37:29;;;;;;;6.68;3.00;;;;;;;21.11;50.54;94595.78;5444290;26;20339;-48
2024/04/15 07:39:55;;;;;;;4.75;3.50;;;;;;;21.06;51.98;94598.44;5448841;26;19995;-50
2024/04/15 07:42:20;;;;;;;5.68;3.45;;;;;;;20.88;52.46;94597.03;5444096;26;20018;-49
2024/04/15 07:44:46;;;;;;;4.97;4.13;;;;;;;20.90;52.99;94605.50;5448219;26;20018;-46
2024/04/15 07:47:11;;;;;;;5.18;4.30;;;;;;;20.49;53.65;94605.25;5446229;26;20071;-48
2024/04/15 07:49:37;;;;;;;8.50;4.47;;;;;;;20.64;53.64;94596.66;5445958;26;20063;-46
2024/04/15 07:52:04;;;;;;;8.85;4.43;;;;;;;20.47;54.53;94600.22;5435728;26;20476;-46
2024/04/15 07:54:29;;;;;;;9.55;4.80;;;;;;;20.65;53.60;94596.38;5434258;26;19996;-47
2024/04/15 07:56:54;;;;;;;5.70;4.60;;;;;;;20.80;54.18;94597.53;5446817;26;19995;-46
2024/04/15 07:59:20;;;;;;;9.70;4.65;;;;;;;21.03;53.60;94589.16;5440896;26;20448;-46
2024/04/15 08:01:45;;;;;;;8.70;4.47;;;;;;;21.27;53.27;94591.38;5432872;26;20010;-48
2024/04/15 08:04:10;;;;;;;6.47;3.72;;;;;;;21.29;51.30;94598.00;5444605;26;19999;-46
2024/04/15 08:06:35;;;;;;;4.55;3.40;;;;;;;21.38;49.33;94600.13;5446348;26;20067;-46
2024/04/15 08:09:01;;;;;;;5.10;3.30;;;;;;;21.29;49.55;94603.28;5447585;26;20010;-49
2024/04/15 08:11:27;;;;;;;4.03;2.80;;;;;;;21.68;47.08;94604.72;5433656;26;20039;-51
2024/04/15 08:13:52;;;;;;;5.03;3.28;;;;;;;21.71;47.93;94609.50;5448407;26;20009;-51
2024/04/15 08:16:18;;;;;;;4.82;3.20;;;;;;;21.38;46.74;94602.75;5427641;26;19995;-50
2024/04/15 08:18:47;;;;;;;5.30;3.33;;;;;;;21.60;48.19;94606.03;5447855;26;20010;-46
2024/04/15 08:21:13;;;;;;;5.57;3.50;;;;;;;21.31;48.16;94621.53;5440747;26;20006;-52
2024/04/15 08:23:38;;;;;;;4.93;3.17;;;;;;;21.37;47.04;94631.06;5431905;26;19999;-47
2024/04/15 08:26:06;;;;;;;7.93;2.90;;;;;;;21.52;48.25;94638.31;5444000;26;20013;-50
2024/04/15 08:28:31;;;;;;;5.57;2.90;;;;;;;21.49;47.30;94622.94;5439573;26;20003;-53
2024/04/15 08:30:57;;;;;;;3.83;2.67;;;;;;;21.37;47.58;94628.44;5445277;26;19999;-51
2024/04/15 08:33:22;;;;;;;5.32;3.08;;;;;;;21.44;46.81;94631.66;5447578;26;19998;-48
2024/04/15 08:35:48;;;;;;;6.95;5.68;;;;;;;21.53;47.55;94647.81;5462017;26;20009;-48
2024/04/15 08:38:13;;;;;;;6.43;3.35;;;;;;;21.55;47.65;94637.78;5408846;26;20089;-50
2024/04/15 08:40:45;;;;;;;6.90;3.38;;;;;;;21.37;49.14;94630.28;5438689;26;20002;-46
2024/04/15 08:43:13;;;;;;;4.53;3.25;;;;;;;21.25;50.03;94651.69;5434310;26;20031;-49
2024/04/15 08:45:43;;;;;;;4.28;3.55;;;;;;;21.16;50.56;94677.81;5474300;26;19999;-50
2024/04/15 08:48:11;;;;;;;7.30;3.60;;;;;;;20.99;50.13;94699.13;5445260;26;20003;-52
2024/04/15 08:50:37;;;;;;;7.18;3.70;;;;;;;21.05;49.86;94713.19;5440717;26;20009;-50
2024/04/15 08:53:02;;;;;;;6.45;3.67;;;;;;;20.59;51.70;94712.84;5440585;26;19999;-49
2024/04/15 08:55:31;;;;;;;5.15;3.22;;;;;;;20.31;52.28;94715.53;5447126;26;20007;-51
2024/04/15 08:57:57;;;;;;;6.07;3.65;;;;;;;19.89;53.12;94696.88;5429652;26;20030;-49
2024/04/15 09:00:23;;;;;;;4.70;3.47;;;;;;;20.07;52.83;94708.97;5446412;26;19999;-48
2024/04/15 09:02:51;;;;;;;5.32;4.07;;;;;;;19.75;53.91;94712.31;5441785;26;20060;-52
2024/04/15 09:05:17;;;;;;;10.15;4.38;;;;;;;19.92;54.58;94720.94;5448624;26;19995;-51
2024/04/15 09:07:44;;;;;;;5.28;3.88;;;;;;;19.60;55.05;94735.84;5442899;26;20066;-50
2024/04/15 09:10:11;;;;;;;5.80;3.70;;;;;;;19.78;54.19;94740.88;5448890;26;20018;-48
2024/04/15 09:12:45;;;;;;;30.60;9.27;;;;;;;19.53;54.80;94733.38;5439369;26;20009;-48
2024/04/15 09:15:11;;;;;;;31.25;11.20;;;;;;;19.27;55.79;94748.09;5439079;26;20066;-48
2024/04/15 09:17:37;;;;;;;11.20;4.20;;;;;;;19.21;56.76;94754.34;5441476;26;19999;-48
2024/04/15 09:20:03;;;;;;;4.82;3.95;;;;;;;19.09;56.85;94757.88;5443024;26;20014;-49
2024/04/15 09:22:33;;;;;;;7.25;4.20;;;;;;;18.97;57.53;94754.53;5443519;26;20434;-49
2024/04/15 09:25:01;;;;;;;6.68;4.00;;;;;;;18.81;57.71;94747.44;5441030;26;19999;-51
2024/04/15 09:27:26;;;;;;;5.47;4.10;;;;;;;18.94;56.90;94733.94;5441506;26;20015;-51
2024/04/15 09:29:52;;;;;;;6.65;4.25;;;;;;;18.93;56.81;94737.63;5446005;26;20007;-49
2024/04/15 09:32:21;;;;;;;5.20;4.00;;;;;;;18.91;57.62;94737.06;5439366;26;20000;-50
2024/04/15 09:34:51;;;;;;;8.47;4.23;;;;;;;18.65;58.26;94741.09;5446257;26;20018;-49
2024/04/15 09:37:17;;;;;;;7.50;4.75;;;;;;;18.49;59.92;94738.22;5447494;26;20007;-48
2024/04/15 09:39:43;;;;;;;6.63;4.68;;;;;;;18.72;58.51;94726.72;5444462;26;20006;-51
2024/04/15 09:42:08;;;;;;;7.57;4.63;;;;;;;18.58;59.01;94740.47;5441711;26;20450;-51
2024/04/15 09:44:39;;;;;;;7.07;4.85;;;;;;;18.55;59.26;94715.41;5435576;26;20003;-50
2024/04/15 09:47:06;;;;;;;8.68;4.72;;;;;;;18.33;60.10;94697.69;5443299;26;20005;-47
2024/04/15 09:49:32;;;;;;;6.95;4.90;;;;;;;18.58;59.46;94701.75;5447342;26;20019;-50
2024/04/15 09:52:04;;;;;;;8.40;5.55;;;;;;;18.44;59.48;94711.00;5439925;26;19996;-48
2024/04/15 09:54:32;;;;;;;7.53;5.32;;;;;;;18.27;59.49;94714.41;5440030;26;20003;-50
2024/04/15 09:57:14;;;;;;;8.45;5.72;;;;;;;17.94;61.72;94708.06;5442063;26;20010;-51
2024/04/15 09:59:42;;;;;;;7.13;5.03;;;;;;;18.05;60.53;94697.72;5448144;26;20006;-49
2024/04/15 10:02:30;;;;;;;6.93;5.03;;;;;;;17.96;62.01;94697.31;5445007;26;20013;-50
2024/04/15 10:05:01;;;;;;;8.80;5.57;;;;;;;17.98;60.85;94703.13;5443364;26;20051;-50
2024/04/15 10:07:28;;;;;;;8.23;5.55;;;;;;;18.13;60.71;94695.50;5437869;26;20539;-51
2024/04/15 10:09:53;;;;;;;8.02;5.20;;;;;;;18.23;60.55;94694.88;5442348;26;20031;-50
2024/04/15 10:12:20;;;;;;;6.00;4.72;;;;;;;18.12;60.17;94699.16;5441671;26;20017;-52
2024/04/15 10:14:46;;;;;;;6.18;5.38;;;;;;;18.25;60.68;94692.81;5447945;26;20111;-47
2024/04/15 10:17:11;;;;;;;8.73;6.10;;;;;;;18.23;60.09;94694.88;5444644;26;19995;-49
2024/04/15 10:19:37;;;;;;;8.43;6.28;;;;;;;18.10;61.48;94693.34;5435919;26;20031;-50
2024/04/15 10:22:02;;;;;;;7.43;5.53;;;;;;;18.03;60.57;94684.81;5437166;26;19999;-50
2024/04/15 10:24:28;;;;;;;7.30;5.80;;;;;;;17.90;61.71;94678.00;5440556;26;19995;-51
2024/04/15 10:26:54;;;;;;;6.90;5.50;;;;;;;17.94;60.75;94673.09;5442458;26;20017;-47
2024/04/15 10:29:32;;;;;;;9.63;5.95;;;;;;;17.63;62.15;94656.72;5439244;26;20432;-47
2024/04/15 10:31:58;;;;;;;6.82;5.95;;;;;;;17.68;61.20;94664.69;5445504;26;20002;-49
2024/04/15 10:34:25;;;;;;;7.88;5.28;;;;;;;17.44;62.05;94652.66;5441083;26;20052;-49
2024/04/15 10:36:57;;;;;;;9.75;5.50;;;;;;;17.56;61.69;94635.81;5443235;26;19998;-46
2024/04/15 10:39:23;;;;;;;7.10;5.13;;;;;;;17.64;61.71;94639.91;5442129;26;19995;-48
2024/04/15 10:41:49;;;;;;;6.72;4.88;;;;;;;17.79;60.81;94618.34;5444990;26;20024;-48
2024/04/15 10:44:15;;;;;;;6.65;5.00;;;;;;;17.55;62.19;94607.13;5439696;26;20096;-48
2024/04/15 10:46:42;;;;;;;6.93;5.60;;;;;;;18.03;62.83;94602.44;5442676;26;20053;-52
2024/04/15 10:49:08;;;;;;;5.75;4.40;;;;;;;18.40;61.16;94594.84;5440707;26;20007;-51
2024/04/15 10:51:34;;;;;;;8.30;5.00;;;;;;;18.73;61.39;94594.00;5441868;26;19999;-48
2024/04/15 10:53:59;;;;;;;6.28;4.85;;;;;;;19.09;60.70;94594.44;5444895;26;20039;-49
2024/04/15 10:56:25;;;;;;;5.15;4.65;;;;;;;19.35;60.10;94594.75;5445353;26;20065;-48
2024/04/15 10:58:51;;;;;;;4.10;3.53;;;;;;;19.55;57.50;94591.50;5445823;26;19994;-48
2024/04/15 11:01:17;;;;;;;4.32;3.70;;;;;;;19.50;57.55;94586.97;5441430;26;20039;-48
2024/04/15 11:03:43;;;;;;;5.15;4.03;;;;;;;19.41;58.69;94567.38;5438621;26;19994;-48
2024/04/15 11:06:09;;;;;;;5.10;3.30;;;;;;;19.87;55.75;94562.53;5431071;26;20000;-48
2024/04/15 11:08:35;;;;;;;4.13;3.70;;;;;;;19.71;55.75;94558.16;5433744;26;20068;-51
2024/04/15 11:11:01;;;;;;;5.35;3.30;;;;;;;19.77;55.72;94545.84;5410927;26;20011;-50
2024/04/15 11:13:26;;;;;;;5.07;3.70;;;;;;;19.92;56.15;94532.75;5445513;26;19994;-46
2024/04/15 11:15:54;;;;;;;5.20;3.60;;;;;;;19.85;54.94;94534.81;5440406;26;20007;-46
2024/04/15 11:18:20;;;;;;;3.88;3.28;;;;;;;19.71;53.39;94529.16;5443159;26;20034;-45
2024/04/15 11:20:45;;;;;;;4.78;4.10;;;;;;;19.63;55.12;94519.03;5441019;26;20006;-45
2024/04/15 11:23:11;;;;;;;3.83;3.40;;;;;;;19.40;54.48;94525.41;5439282;26;19999;-47
2024/04/15 11:25:37;;;;;;;4.43;3.92;;;;;;;19.67;56.98;94536.75;5448757;26;20017;-46
2024/04/15 11:28:03;;;;;;;5.57;4.10;;;;;;;19.51;58.48;94527.94;5445505;26;20017;-47